Peekskill, New York
Current Conditions -  °F | °C
As of 1:45 AM on Tuesday 21 Oct 2014 (Local Time) from KSWF Reporting Station
Broken Clouds Broken Clouds  
Wind Chill: 54°   Ceiling: 10000
Heat Index: 54°   Visibility: 10mi
Dew Point: 43°   Wind: 6mph
Humidity: 67%   Direction: 130°SE
Pressure: 29.94"   Gusts: NA
Location:  41.29°N, 73.92°W
Report Text: KSWF 210545Z 13005KT 10SM BKN100 12/06 A2994
Loading
Personal Weather Stations






























Interactive Weather Map
Tropical Storm Tracking
New forecast layout! Learn more

10-Day Weather Forecast

Advertisements
Track Severe Weather on mobile